createdAt,value
2019-03-08T00:00:04.856Z,72.27
2019-03-08T00:01:01.186Z,72.18
2019-03-08T00:01:37.307Z,72.06
2019-03-08T00:02:14.243Z,71.91
2019-03-08T00:02:50.573Z,71.73
2019-03-08T00:03:26.764Z,71.56
2019-03-08T00:04:02.899Z,71.19
2019-03-08T00:04:39.003Z,71.19
2019-03-08T00:05:15.293Z,71.11
2019-03-08T00:05:51.539Z,70.30
2019-03-08T00:06:28.204Z,70.30
2019-03-08T00:07:04.479Z,70.36
2019-03-08T00:07:40.699Z,69.86
2019-03-08T00:08:16.924Z,69.86
2019-03-08T00:08:53.137Z,69.79
2019-03-08T00:09:29.324Z,69.79
2019-03-08T00:10:05.470Z,69.17
2019-03-08T00:10:41.906Z,68.97
2019-03-08T00:11:18.053Z,68.89
2019-03-08T00:11:54.205Z,68.93
2019-03-08T00:12:30.358Z,68.92
2019-03-08T00:13:06.563Z,69.10
2019-03-08T00:13:42.948Z,69.10
2019-03-08T00:14:19.074Z,68.36
2019-03-08T00:14:55.347Z,68.36
2019-03-08T00:15:31.554Z,68.51
2019-03-08T00:16:07.777Z,68.51
2019-03-08T00:16:43.903Z,68.26
2019-03-08T00:17:20.045Z,68.22
2019-03-08T00:17:56.142Z,68.41
2019-03-08T00:18:32.310Z,68.10
2019-03-08T00:19:10.151Z,68.06
2019-03-08T00:19:47.027Z,68.34
2019-03-08T00:20:23.182Z,68.34
2019-03-08T00:20:59.348Z,68.23
2019-03-08T00:21:35.590Z,67.88
2019-03-08T00:22:11.706Z,67.88
2019-03-08T00:22:47.846Z,67.97
2019-03-08T00:23:24.630Z,68.21
2019-03-08T00:24:01.466Z,68.21
2019-03-08T00:24:37.535Z,67.89
2019-03-08T00:25:13.732Z,67.77
2019-03-08T00:25:49.868Z,67.43
2019-03-08T00:26:26.009Z,67.43
2019-03-08T00:27:02.127Z,67.80
2019-03-08T00:27:38.356Z,67.63
2019-03-08T00:28:14.466Z,67.71
2019-03-08T00:28:50.699Z,67.74
2019-03-08T00:29:26.866Z,68.01
2019-03-08T00:30:03.113Z,67.25
2019-03-08T00:30:39.172Z,67.25
2019-03-08T00:31:15.312Z,67.79
2019-03-08T00:31:51.396Z,66.91
2019-03-08T00:32:27.558Z,66.91
2019-03-08T00:33:03.814Z,67.35
2019-03-08T00:33:39.937Z,67.13
2019-03-08T00:34:16.488Z,67.17
2019-03-08T00:34:52.600Z,67.17
2019-03-08T00:35:28.889Z,66.78
2019-03-08T00:36:05.180Z,66.69
2019-03-08T00:36:41.316Z,66.49
2019-03-08T00:37:17.458Z,66.04
2019-03-08T00:37:53.640Z,65.72
2019-03-08T00:38:29.762Z,66.24
2019-03-08T00:39:06.883Z,66.24
2019-03-08T00:39:42.997Z,65.99
2019-03-08T00:40:19.116Z,65.80
2019-03-08T00:40:55.343Z,65.68
2019-03-08T00:41:31.558Z,65.57
2019-03-08T00:42:07.721Z,65.40
2019-03-08T00:42:43.949Z,65.20
2019-03-08T00:43:20.049Z,65.02
2019-03-08T00:43:56.317Z,64.90
2019-03-08T00:44:32.496Z,64.74
2019-03-08T00:45:09.173Z,64.57
2019-03-08T00:45:45.570Z,64.47
2019-03-08T00:46:21.692Z,64.33
2019-03-08T00:46:57.858Z,64.12
2019-03-08T00:47:34.017Z,64.05
2019-03-08T00:48:10.156Z,63.90
2019-03-08T00:48:46.265Z,63.81
2019-03-08T00:49:22.415Z,63.58
2019-03-08T00:49:58.997Z,63.32
2019-03-08T00:50:35.162Z,63.24
2019-03-08T00:51:11.263Z,63.00
2019-03-08T00:51:47.541Z,62.87
2019-03-08T00:52:23.677Z,62.79
2019-03-08T00:52:59.764Z,62.73
2019-03-08T00:53:36.032Z,62.69
2019-03-08T00:54:12.187Z,62.58
2019-03-08T00:54:48.347Z,62.40
2019-03-08T00:55:24.539Z,62.23
2019-03-08T00:56:01.003Z,62.10
2019-03-08T00:56:37.121Z,61.93
2019-03-08T00:57:13.477Z,61.77
2019-03-08T00:57:49.587Z,61.64
2019-03-08T00:58:26.307Z,61.55
2019-03-08T00:59:02.416Z,61.43
2019-03-08T00:59:38.696Z,61.37
2019-03-08T01:00:16.940Z,61.26
2019-03-08T01:00:53.026Z,61.11
2019-03-08T01:01:29.182Z,60.91
2019-03-08T01:02:05.291Z,60.66
2019-03-08T01:02:41.510Z,60.56
2019-03-08T01:03:17.637Z,60.55
2019-03-08T01:03:53.846Z,60.49
2019-03-08T01:04:30.006Z,60.38
2019-03-08T01:05:07.666Z,60.28
2019-03-08T01:05:43.792Z,60.19
2019-03-08T01:06:20.032Z,60.09
2019-03-08T01:06:56.231Z,59.98
2019-03-08T01:07:32.371Z,59.90
2019-03-08T01:08:08.475Z,59.81
2019-03-08T01:08:44.751Z,59.71
2019-03-08T01:09:20.853Z,59.61
2019-03-08T01:09:56.986Z,59.56
2019-03-08T01:10:33.160Z,59.47
2019-03-08T01:11:09.255Z,59.26
2019-03-08T01:11:45.591Z,59.14
2019-03-08T01:12:21.795Z,59.05
2019-03-08T01:12:57.904Z,58.93
2019-03-08T01:13:34.044Z,58.71
2019-03-08T01:14:10.240Z,58.68
2019-03-08T01:14:46.321Z,58.55
2019-03-08T01:15:22.639Z,58.39
2019-03-08T01:15:58.880Z,58.34
2019-03-08T01:16:35.396Z,58.31
2019-03-08T01:17:11.636Z,58.25
2019-03-08T01:17:47.833Z,58.18
2019-03-08T01:18:23.952Z,58.00
2019-03-08T01:19:00.214Z,57.95
2019-03-08T01:19:36.325Z,57.77
2019-03-08T01:20:13.876Z,57.67
2019-03-08T01:20:50.035Z,57.64
2019-03-08T01:21:26.157Z,57.56
2019-03-08T01:22:02.298Z,57.35
2019-03-08T01:22:38.406Z,57.22
2019-03-08T01:23:14.563Z,57.05
2019-03-08T01:23:50.674Z,57.00
2019-03-08T01:24:27.065Z,56.80
2019-03-08T01:25:03.147Z,56.66
2019-03-08T01:25:39.299Z,56.56
2019-03-08T01:26:15.419Z,56.52
2019-03-08T01:26:51.821Z,56.43
2019-03-08T01:27:28.024Z,56.44
2019-03-08T01:28:09.297Z,56.45
2019-03-08T01:28:46.035Z,56.40
2019-03-08T01:29:22.253Z,56.06
2019-03-08T01:29:58.444Z,55.99
2019-03-08T01:30:34.642Z,55.78
2019-03-08T01:31:10.821Z,55.80
2019-03-08T01:31:47.093Z,55.82
2019-03-08T01:32:23.207Z,55.88
2019-03-08T01:32:59.338Z,55.91
2019-03-08T01:33:35.579Z,55.97
2019-03-08T01:34:11.708Z,56.02
2019-03-08T01:34:47.821Z,56.02
2019-03-08T01:35:23.955Z,56.10
2019-03-08T01:36:00.312Z,55.99
2019-03-08T01:36:36.429Z,55.88
2019-03-08T01:37:12.921Z,55.75
2019-03-08T01:37:49.061Z,55.64
2019-03-08T01:38:25.161Z,55.60
2019-03-08T01:39:01.422Z,55.46
2019-03-08T01:39:37.548Z,55.38
2019-03-08T01:40:13.680Z,55.38
2019-03-08T01:40:49.872Z,55.18
2019-03-08T01:41:26.006Z,54.97
2019-03-08T01:42:02.095Z,54.96
2019-03-08T01:42:38.229Z,54.97
2019-03-08T01:43:14.379Z,54.93
2019-03-08T01:43:50.516Z,54.81
2019-03-08T01:44:26.605Z,54.69
2019-03-08T01:45:03.827Z,54.55
2019-03-08T01:45:39.927Z,54.32
2019-03-08T01:46:16.310Z,54.16
2019-03-08T01:46:52.530Z,54.00
2019-03-08T01:47:28.764Z,53.99
2019-03-08T01:48:05.026Z,53.88
2019-03-08T01:48:41.108Z,53.70
2019-03-08T01:49:17.301Z,53.50
2019-03-08T01:49:53.357Z,53.33
2019-03-08T01:50:29.490Z,53.04
2019-03-08T01:51:05.550Z,52.90
2019-03-08T01:51:41.618Z,52.91
2019-03-08T01:52:17.719Z,52.97
2019-03-08T01:52:53.799Z,52.96
2019-03-08T01:53:29.921Z,52.89
2019-03-08T01:54:06.082Z,52.80
2019-03-08T01:54:42.211Z,52.82
2019-03-08T01:55:18.436Z,52.75
2019-03-08T01:55:54.725Z,52.81
2019-03-08T01:56:30.846Z,52.75
2019-03-08T01:57:07.034Z,52.67
2019-03-08T01:57:43.245Z,52.61
2019-03-08T01:58:19.340Z,52.58
2019-03-08T01:58:55.526Z,52.48
2019-03-08T01:59:31.682Z,52.51
2019-03-08T02:00:10.735Z,52.43
2019-03-08T02:00:46.899Z,52.34
2019-03-08T02:01:23.015Z,52.33
2019-03-08T02:01:59.283Z,52.35
2019-03-08T02:02:35.503Z,52.50
2019-03-08T02:03:11.825Z,52.55
2019-03-08T02:03:47.983Z,52.59
2019-03-08T02:04:24.150Z,52.58
2019-03-08T02:05:00.356Z,52.47
2019-03-08T02:05:36.496Z,52.41
2019-03-08T02:06:12.757Z,52.47
2019-03-08T02:06:50.546Z,52.39
2019-03-08T02:07:26.858Z,52.35
2019-03-08T02:08:03.017Z,52.22
2019-03-08T02:08:39.139Z,52.12
2019-03-08T02:09:15.242Z,52.08
2019-03-08T02:09:51.369Z,52.05
2019-03-08T02:10:27.865Z,52.07
2019-03-08T02:11:03.970Z,52.23
2019-03-08T02:11:40.065Z,52.13
2019-03-08T02:12:16.319Z,52.08
2019-03-08T02:12:52.431Z,52.09
2019-03-08T02:13:28.535Z,52.03
2019-03-08T02:14:04.707Z,51.98
2019-03-08T02:14:40.985Z,51.95
2019-03-08T02:15:17.364Z,51.84
2019-03-08T02:15:53.427Z,51.81
2019-03-08T02:16:29.579Z,51.64
2019-03-08T02:17:05.914Z,51.58
2019-03-08T02:17:42.031Z,51.52
2019-03-08T02:18:18.384Z,51.20
2019-03-08T02:18:54.583Z,51.06
2019-03-08T02:19:30.697Z,51.08
2019-03-08T02:20:07.351Z,50.92
2019-03-08T02:20:43.516Z,50.82
2019-03-08T02:21:19.800Z,50.84
2019-03-08T02:21:55.861Z,50.64
2019-03-08T02:22:32.399Z,50.39
2019-03-08T02:23:08.628Z,50.32
2019-03-08T02:23:44.912Z,50.39
2019-03-08T02:24:21.103Z,50.50
2019-03-08T02:24:57.180Z,50.59
2019-03-08T02:25:33.458Z,50.59
2019-03-08T02:26:09.602Z,50.44
2019-03-08T02:26:45.909Z,50.37
2019-03-08T02:27:22.289Z,50.39
2019-03-08T02:27:58.488Z,50.37
2019-03-08T02:28:34.956Z,50.25
2019-03-08T02:29:11.076Z,50.27
2019-03-08T02:29:47.205Z,50.25
2019-03-08T02:30:23.424Z,50.33
2019-03-08T02:30:59.560Z,50.28
2019-03-08T02:31:35.750Z,50.09
2019-03-08T02:32:11.911Z,49.94
2019-03-08T02:32:48.197Z,49.81
2019-03-08T02:33:24.311Z,49.66
2019-03-08T02:34:00.491Z,49.48
2019-03-08T02:34:36.629Z,49.34
2019-03-08T02:35:12.967Z,49.06
2019-03-08T02:35:49.180Z,49.04
2019-03-08T02:36:25.604Z,48.94
2019-03-08T02:37:01.768Z,48.75
2019-03-08T02:37:37.812Z,48.47
2019-03-08T02:38:14.003Z,48.47
2019-03-08T02:38:50.496Z,48.38
2019-03-08T02:39:26.713Z,48.41
2019-03-08T02:40:02.930Z,48.51
2019-03-08T02:40:39.848Z,48.38
2019-03-08T02:41:15.908Z,48.31
2019-03-08T02:41:52.006Z,48.21
2019-03-08T02:42:28.115Z,48.07
2019-03-08T02:43:04.917Z,48.02
2019-03-08T02:43:41.005Z,47.90
2019-03-08T02:44:17.100Z,47.93
2019-03-08T02:44:53.494Z,48.11
2019-03-08T02:45:29.636Z,48.29
2019-03-08T02:46:05.736Z,48.53
2019-03-08T02:46:41.880Z,48.75
2019-03-08T02:47:18.134Z,48.86
2019-03-08T02:47:54.266Z,48.92
2019-03-08T02:48:31.534Z,48.63
2019-03-08T02:49:07.878Z,48.26
2019-03-08T02:49:44.133Z,48.26
2019-03-08T02:50:20.312Z,48.23
2019-03-08T02:50:56.462Z,48.23
2019-03-08T02:51:32.678Z,48.26
2019-03-08T02:52:08.809Z,48.21
2019-03-08T02:52:45.037Z,48.18
2019-03-08T02:53:21.161Z,48.23
2019-03-08T02:53:57.281Z,48.35
2019-03-08T02:54:34.480Z,48.33
2019-03-08T02:55:10.756Z,48.22
2019-03-08T02:55:46.893Z,48.09
2019-03-08T02:56:23.062Z,47.99
2019-03-08T02:56:59.116Z,47.91
2019-03-08T02:57:35.441Z,47.77
2019-03-08T02:58:11.887Z,47.65
2019-03-08T02:58:48.254Z,47.67
2019-03-08T02:59:24.673Z,47.68
2019-03-08T03:00:00.741Z,47.85
2019-03-08T03:00:45.982Z,48.00
2019-03-08T03:01:22.274Z,48.17
2019-03-08T03:01:58.383Z,48.47
2019-03-08T03:02:34.677Z,48.62
2019-03-08T03:03:10.766Z,48.80
2019-03-08T03:03:46.974Z,48.83
2019-03-08T03:04:23.212Z,48.88
2019-03-08T03:04:59.508Z,48.92
2019-03-08T03:05:35.628Z,48.79
2019-03-08T03:06:13.225Z,48.54
2019-03-08T03:06:49.592Z,48.54
2019-03-08T03:07:25.784Z,48.43
2019-03-08T03:08:01.930Z,48.22
2019-03-08T03:08:38.069Z,48.14
2019-03-08T03:09:14.210Z,47.99
2019-03-08T03:09:50.376Z,48.03
2019-03-08T03:10:26.686Z,47.92
2019-03-08T03:11:02.742Z,47.89
2019-03-08T03:11:38.862Z,47.66
2019-03-08T03:12:15.076Z,47.62
2019-03-08T03:12:51.234Z,47.57
2019-03-08T03:13:27.331Z,47.65
2019-03-08T03:14:03.577Z,47.45
2019-03-08T03:14:39.861Z,47.64
2019-03-08T03:15:15.947Z,47.73
2019-03-08T03:15:52.163Z,47.48
2019-03-08T03:16:28.490Z,47.21
2019-03-08T03:17:04.615Z,47.09
2019-03-08T03:17:41.075Z,46.78
2019-03-08T03:18:17.160Z,46.63
2019-03-08T03:18:53.280Z,46.62
2019-03-08T03:19:29.433Z,46.76
2019-03-08T03:20:06.205Z,46.76
2019-03-08T03:20:42.357Z,46.40
2019-03-08T03:21:18.442Z,46.30
2019-03-08T03:21:54.571Z,46.61
2019-03-08T03:22:30.775Z,46.69
2019-03-08T03:23:07.007Z,46.88
2019-03-08T03:23:43.167Z,46.97
2019-03-08T03:24:19.459Z,47.09
2019-03-08T03:24:55.566Z,47.34
2019-03-08T03:25:31.660Z,47.25
2019-03-08T03:26:07.825Z,47.44
2019-03-08T03:26:43.953Z,47.32
2019-03-08T03:27:20.083Z,47.17
2019-03-08T03:27:56.405Z,47.09
2019-03-08T03:28:32.640Z,47.21
2019-03-08T03:29:08.821Z,47.18
2019-03-08T03:29:44.851Z,47.18
2019-03-08T03:30:21.166Z,47.29
2019-03-08T03:30:57.308Z,47.15
2019-03-08T03:31:33.394Z,46.83
2019-03-08T03:32:09.533Z,46.72
2019-03-08T03:32:45.721Z,46.59
2019-03-08T03:33:21.905Z,46.12
2019-03-08T03:33:58.042Z,45.79
2019-03-08T03:34:34.217Z,45.72
2019-03-08T03:35:10.585Z,46.12
2019-03-08T03:35:46.692Z,46.19
2019-03-08T03:36:22.839Z,46.34
2019-03-08T03:36:59.034Z,46.51
2019-03-08T03:37:35.175Z,46.26
2019-03-08T03:38:11.618Z,45.83
2019-03-08T03:38:47.724Z,45.81
2019-03-08T03:39:23.831Z,45.97
2019-03-08T03:39:59.943Z,46.06
2019-03-08T03:40:36.134Z,46.28
2019-03-08T03:41:12.249Z,46.40
2019-03-08T03:41:48.378Z,46.29
2019-03-08T03:42:24.472Z,46.17
2019-03-08T03:43:00.684Z,46.09
2019-03-08T03:43:36.831Z,45.92
2019-03-08T03:44:13.048Z,45.31
2019-03-08T03:44:49.216Z,44.82
2019-03-08T03:45:25.348Z,44.42
2019-03-08T03:46:01.450Z,44.52
2019-03-08T03:46:37.567Z,44.71
2019-03-08T03:47:13.755Z,44.95
2019-03-08T03:47:50.011Z,45.15
2019-03-08T03:48:26.152Z,45.18
2019-03-08T03:49:02.292Z,44.79
2019-03-08T03:49:38.611Z,44.71
2019-03-08T03:50:14.832Z,44.57
2019-03-08T03:50:51.072Z,44.47
2019-03-08T03:51:27.173Z,44.02
2019-03-08T03:52:03.333Z,44.44
2019-03-08T03:52:39.489Z,44.42
2019-03-08T03:53:15.650Z,44.61
2019-03-08T03:53:51.780Z,44.57
2019-03-08T03:54:27.976Z,44.52
2019-03-08T03:55:04.145Z,44.24
2019-03-08T03:55:40.210Z,44.14
2019-03-08T03:56:16.488Z,43.99
2019-03-08T03:56:53.583Z,44.08
2019-03-08T03:57:29.666Z,44.17
2019-03-08T03:58:05.815Z,43.74
2019-03-08T03:58:41.954Z,43.34
2019-03-08T03:59:18.241Z,43.60
2019-03-08T03:59:54.580Z,43.75
2019-03-08T04:00:30.744Z,43.71
2019-03-08T04:01:28.550Z,43.76
2019-03-08T04:02:04.737Z,43.87
2019-03-08T04:02:40.867Z,44.34
2019-03-08T04:03:17.286Z,44.47
2019-03-08T04:03:53.405Z,44.49
2019-03-08T04:04:29.660Z,44.73
2019-03-08T04:05:05.966Z,44.58
2019-03-08T04:05:42.173Z,44.54
2019-03-08T04:06:18.489Z,44.54
2019-03-08T04:06:54.586Z,44.36
2019-03-08T04:07:30.766Z,44.24
2019-03-08T04:08:06.887Z,44.16
2019-03-08T04:08:43.109Z,44.48
2019-03-08T04:09:19.200Z,44.44
2019-03-08T04:09:55.342Z,44.56
2019-03-08T04:10:31.442Z,44.53
2019-03-08T04:11:07.557Z,44.44
2019-03-08T04:11:43.861Z,44.30
2019-03-08T04:12:20.053Z,44.30
2019-03-08T04:12:56.296Z,44.10
2019-03-08T04:13:32.399Z,43.95
2019-03-08T04:14:08.532Z,43.92
2019-03-08T04:14:44.651Z,43.90
2019-03-08T04:15:20.950Z,43.65
2019-03-08T04:15:57.194Z,43.60
2019-03-08T04:16:33.425Z,43.73
2019-03-08T04:17:09.756Z,44.01
2019-03-08T04:17:45.963Z,44.07
2019-03-08T04:18:22.173Z,44.02
2019-03-08T04:18:58.278Z,44.14
2019-03-08T04:19:34.361Z,43.97
2019-03-08T04:20:11.700Z,43.72
2019-03-08T04:20:47.855Z,43.60
2019-03-08T04:21:24.197Z,43.58
2019-03-08T04:22:00.462Z,43.75
2019-03-08T04:22:36.724Z,44.09
2019-03-08T04:23:12.906Z,44.38
2019-03-08T04:23:49.578Z,44.49
2019-03-08T04:24:25.736Z,44.43
2019-03-08T04:25:02.415Z,44.19
2019-03-08T04:25:38.616Z,44.06
2019-03-08T04:26:14.824Z,43.91
2019-03-08T04:26:50.968Z,43.94
2019-03-08T04:27:27.078Z,43.89
2019-03-08T04:28:03.217Z,43.87
2019-03-08T04:28:39.308Z,44.08
2019-03-08T04:29:15.481Z,44.15
2019-03-08T04:29:51.763Z,44.18
2019-03-08T04:30:27.911Z,44.19
2019-03-08T04:31:04.167Z,44.11
2019-03-08T04:31:40.846Z,44.02
2019-03-08T04:32:17.116Z,44.19
2019-03-08T04:32:53.766Z,44.24
2019-03-08T04:33:30.030Z,44.20
2019-03-08T04:34:06.184Z,44.14
2019-03-08T04:34:42.313Z,44.12
2019-03-08T04:35:18.768Z,44.17
2019-03-08T04:35:54.958Z,44.28
2019-03-08T04:36:31.703Z,44.40
2019-03-08T04:37:07.990Z,44.38
2019-03-08T04:37:44.121Z,44.43
2019-03-08T04:38:20.352Z,44.36
2019-03-08T04:38:56.577Z,44.35
2019-03-08T04:39:32.637Z,44.32
2019-03-08T04:40:09.783Z,44.25
2019-03-08T04:40:46.022Z,44.17
2019-03-08T04:41:22.170Z,44.03
2019-03-08T04:41:58.299Z,43.79
2019-03-08T04:42:34.439Z,43.68
2019-03-08T04:43:10.591Z,43.29
2019-03-08T04:43:46.820Z,42.96
2019-03-08T04:44:22.947Z,43.00
2019-03-08T04:44:59.201Z,43.03
2019-03-08T04:45:35.554Z,43.00
2019-03-08T04:46:11.742Z,42.83
2019-03-08T04:46:47.869Z,42.46
2019-03-08T04:47:24.064Z,42.44
2019-03-08T04:48:00.243Z,42.81
2019-03-08T04:48:36.365Z,42.95
2019-03-08T04:49:12.526Z,42.95
2019-03-08T04:49:48.720Z,43.01
2019-03-08T04:50:24.828Z,43.13
2019-03-08T04:51:00.942Z,43.32
2019-03-08T04:51:37.250Z,43.53
2019-03-08T04:52:13.376Z,43.96
2019-03-08T04:52:49.514Z,44.24
2019-03-08T04:53:25.680Z,44.31
2019-03-08T04:54:02.106Z,44.13
2019-03-08T04:54:38.526Z,44.38
2019-03-08T04:55:16.836Z,44.56
2019-03-08T04:55:53.387Z,44.58
2019-03-08T04:56:29.481Z,44.53
2019-03-08T04:57:05.846Z,44.51
2019-03-08T04:57:41.924Z,44.50
2019-03-08T04:58:18.052Z,44.55
2019-03-08T04:58:54.212Z,44.53
2019-03-08T04:59:30.305Z,44.37
2019-03-08T05:00:06.802Z,44.31
2019-03-08T05:00:42.926Z,44.26
2019-03-08T05:01:19.202Z,44.26
2019-03-08T05:01:55.281Z,44.68
2019-03-08T05:02:31.433Z,44.68
2019-03-08T05:03:07.574Z,44.65
2019-03-08T05:03:43.731Z,44.22
2019-03-08T05:04:19.943Z,44.21
2019-03-08T05:04:56.103Z,44.12
2019-03-08T05:05:32.193Z,44.13
2019-03-08T05:06:08.432Z,44.08
2019-03-08T05:06:44.566Z,43.96
2019-03-08T05:07:20.829Z,43.64
2019-03-08T05:07:56.996Z,43.22
2019-03-08T05:08:33.371Z,42.49
2019-03-08T05:09:09.690Z,42.36
2019-03-08T05:09:45.799Z,42.25
2019-03-08T05:10:22.073Z,42.10
2019-03-08T05:10:58.252Z,41.69
2019-03-08T05:11:34.527Z,41.59
2019-03-08T05:12:10.675Z,41.53
2019-03-08T05:12:46.786Z,41.57
2019-03-08T05:13:22.950Z,41.90
2019-03-08T05:13:59.238Z,42.28
2019-03-08T05:14:35.310Z,42.27
2019-03-08T05:15:11.553Z,42.53
2019-03-08T05:15:47.742Z,42.41
2019-03-08T05:16:23.927Z,42.12
2019-03-08T05:17:00.062Z,42.13
2019-03-08T05:17:36.209Z,42.12
2019-03-08T05:18:12.523Z,42.30
2019-03-08T05:18:48.986Z,42.51
2019-03-08T05:19:25.118Z,42.72
2019-03-08T05:20:01.256Z,42.21
2019-03-08T05:20:37.465Z,42.16
2019-03-08T05:21:13.576Z,42.36
2019-03-08T05:21:49.831Z,42.18
2019-03-08T05:22:25.919Z,42.06
2019-03-08T05:23:02.199Z,42.09
2019-03-08T05:23:38.276Z,41.84
2019-03-08T05:24:14.451Z,41.51
2019-03-08T05:24:50.582Z,41.22
2019-03-08T05:25:26.843Z,41.16
2019-03-08T05:26:02.937Z,41.14
2019-03-08T05:26:39.127Z,41.20
2019-03-08T05:27:15.371Z,41.16
2019-03-08T05:27:51.586Z,41.09
2019-03-08T05:28:27.785Z,41.01
2019-03-08T05:29:04.148Z,40.86
2019-03-08T05:29:40.291Z,40.90
2019-03-08T05:30:16.528Z,40.93
2019-03-08T05:30:52.785Z,40.95
2019-03-08T05:31:28.833Z,40.81
2019-03-08T05:32:05.110Z,41.05
2019-03-08T05:32:41.227Z,41.02
2019-03-08T05:33:17.424Z,41.04
2019-03-08T05:33:53.499Z,40.94
2019-03-08T05:34:29.768Z,40.94
2019-03-08T05:35:06.537Z,40.94
2019-03-08T05:35:42.621Z,40.84
2019-03-08T05:36:18.837Z,40.40
2019-03-08T05:36:55.017Z,40.43
2019-03-08T05:37:31.103Z,40.67
2019-03-08T05:38:07.236Z,40.65
2019-03-08T05:38:43.343Z,40.16
2019-03-08T05:39:19.586Z,40.21
2019-03-08T05:39:55.713Z,40.46
2019-03-08T05:40:32.080Z,40.42
2019-03-08T05:41:08.229Z,40.19
2019-03-08T05:41:44.655Z,39.76
2019-03-08T05:42:20.725Z,39.68
2019-03-08T05:42:56.962Z,39.54
2019-03-08T05:43:33.142Z,39.72
2019-03-08T05:44:09.322Z,39.66
2019-03-08T05:44:45.387Z,39.88
2019-03-08T05:45:21.719Z,39.76
2019-03-08T05:45:57.864Z,40.01
2019-03-08T05:46:34.086Z,40.25
2019-03-08T05:47:10.376Z,40.17
2019-03-08T05:47:46.546Z,40.33
2019-03-08T05:48:22.821Z,40.38
2019-03-08T05:48:58.992Z,40.12
2019-03-08T05:49:35.163Z,40.29
2019-03-08T05:50:11.712Z,39.92
2019-03-08T05:50:48.206Z,40.01
2019-03-08T05:51:24.327Z,40.26
2019-03-08T05:52:00.618Z,39.87
2019-03-08T05:52:36.718Z,39.48
2019-03-08T05:53:12.826Z,39.45
2019-03-08T05:53:48.971Z,39.75
2019-03-08T05:54:25.064Z,39.73
2019-03-08T05:55:01.172Z,39.64
2019-03-08T05:55:37.530Z,39.52
2019-03-08T05:56:13.646Z,39.48
2019-03-08T05:56:49.794Z,39.76
2019-03-08T05:57:25.895Z,39.26
2019-03-08T05:58:02.030Z,38.78
2019-03-08T05:58:38.127Z,38.59
2019-03-08T05:59:14.275Z,38.49
2019-03-08T05:59:50.456Z,38.40
2019-03-08T06:00:31.884Z,38.20
2019-03-08T06:01:06.166Z,37.89
2019-03-08T06:01:42.301Z,37.61
2019-03-08T06:02:18.674Z,37.22
2019-03-08T06:02:54.792Z,37.61
2019-03-08T06:03:31.007Z,37.63
2019-03-08T06:04:07.062Z,37.43
2019-03-08T06:04:43.308Z,37.49
2019-03-08T06:05:19.447Z,37.55
2019-03-08T06:05:55.546Z,37.52
2019-03-08T06:06:31.662Z,37.53
2019-03-08T06:07:07.814Z,37.37
2019-03-08T06:07:43.847Z,37.36
2019-03-08T06:08:19.981Z,37.23
2019-03-08T06:08:56.063Z,37.30
2019-03-08T06:09:32.218Z,37.37
2019-03-08T06:10:26.886Z,36.93
2019-03-08T06:11:03.014Z,36.79
2019-03-08T06:11:39.134Z,37.06
2019-03-08T06:12:15.241Z,36.83
2019-03-08T06:12:51.345Z,36.69
2019-03-08T06:13:27.457Z,36.47
2019-03-08T06:14:03.623Z,36.20
2019-03-08T06:14:39.743Z,36.19
2019-03-08T06:15:15.830Z,36.36
2019-03-08T06:15:52.225Z,36.35
2019-03-08T06:16:28.310Z,35.96
2019-03-08T06:17:04.450Z,36.09
2019-03-08T06:17:40.567Z,36.24
2019-03-08T06:18:17.065Z,36.35
2019-03-08T06:18:53.389Z,36.43
2019-03-08T06:19:29.697Z,36.68
2019-03-08T06:20:05.832Z,36.54
2019-03-08T06:20:42.063Z,35.94
2019-03-08T06:21:18.361Z,35.56
2019-03-08T06:21:54.628Z,35.69
2019-03-08T06:22:30.751Z,36.08
2019-03-08T06:23:07.004Z,35.54
2019-03-08T06:23:43.296Z,35.17
2019-03-08T06:24:19.457Z,35.11
2019-03-08T06:24:55.587Z,35.15
2019-03-08T06:25:31.823Z,35.20
2019-03-08T06:26:08.253Z,35.04
2019-03-08T06:26:44.383Z,34.81
2019-03-08T06:27:20.618Z,34.76
2019-03-08T06:27:56.722Z,35.02
2019-03-08T06:28:32.812Z,34.76
2019-03-08T06:29:08.898Z,34.72
2019-03-08T06:29:45.159Z,34.49
2019-03-08T06:30:21.442Z,34.18
2019-03-08T06:30:58.107Z,34.04
2019-03-08T06:31:34.203Z,33.82
2019-03-08T06:32:10.427Z,33.84
2019-03-08T06:32:46.676Z,33.60
2019-03-08T06:33:22.860Z,33.78
2019-03-08T06:33:59.019Z,33.61
2019-03-08T06:34:35.410Z,33.60
2019-03-08T06:35:11.638Z,33.62
2019-03-08T06:35:47.886Z,33.99
2019-03-08T06:36:24.090Z,34.06
2019-03-08T06:37:00.297Z,34.25
2019-03-08T06:37:36.637Z,34.27
2019-03-08T06:38:12.816Z,34.76
2019-03-08T06:38:48.972Z,34.56
2019-03-08T06:39:25.004Z,34.41
2019-03-08T06:40:01.116Z,34.53
2019-03-08T06:40:37.270Z,34.56
2019-03-08T06:41:13.337Z,34.48
2019-03-08T06:41:49.441Z,34.72
2019-03-08T06:42:25.774Z,34.87
2019-03-08T06:43:01.984Z,35.00
2019-03-08T06:43:38.362Z,34.95
2019-03-08T06:44:14.465Z,35.06
2019-03-08T06:44:50.618Z,35.16
2019-03-08T06:45:26.808Z,35.36
2019-03-08T06:46:02.927Z,34.98
2019-03-08T06:46:39.030Z,34.82
2019-03-08T06:47:15.159Z,34.94
2019-03-08T06:47:51.269Z,35.01
2019-03-08T06:48:27.420Z,34.92
2019-03-08T06:49:03.501Z,35.09
2019-03-08T06:49:39.659Z,34.97
2019-03-08T06:50:15.890Z,35.03
2019-03-08T06:50:52.071Z,35.05
2019-03-08T06:51:28.192Z,34.94
2019-03-08T06:52:04.492Z,34.96
2019-03-08T06:52:40.606Z,34.88
2019-03-08T06:53:16.739Z,34.93
2019-03-08T06:53:53.106Z,34.91
2019-03-08T06:54:29.153Z,35.03
2019-03-08T06:55:05.761Z,34.64
2019-03-08T06:55:41.839Z,34.61
2019-03-08T06:56:17.922Z,34.38
2019-03-08T06:56:54.014Z,34.70
2019-03-08T06:57:30.136Z,34.90
2019-03-08T06:58:07.080Z,35.03
2019-03-08T06:59:13.812Z,35.11
2019-03-08T07:00:00.182Z,34.97
2019-03-08T07:01:04.493Z,34.61
2019-03-08T07:01:41.980Z,34.39
2019-03-08T07:02:19.043Z,34.63
2019-03-08T07:02:55.265Z,34.57
2019-03-08T07:03:31.343Z,34.64
2019-03-08T07:04:07.439Z,34.30
2019-03-08T07:04:43.652Z,34.57
2019-03-08T07:05:20.281Z,35.06
2019-03-08T07:05:56.516Z,35.00
2019-03-08T07:06:32.912Z,35.03
2019-03-08T07:07:08.990Z,34.59
2019-03-08T07:07:45.152Z,34.23
2019-03-08T07:08:21.283Z,34.40
2019-03-08T07:08:57.380Z,34.54
2019-03-08T07:09:33.490Z,34.54
2019-03-08T07:10:09.986Z,34.57
2019-03-08T07:10:46.173Z,34.37
2019-03-08T07:11:22.287Z,34.41
2019-03-08T07:11:58.454Z,34.55
2019-03-08T07:12:34.613Z,34.69
2019-03-08T07:13:10.703Z,34.96
2019-03-08T07:13:46.812Z,34.91
2019-03-08T07:14:22.954Z,34.87
2019-03-08T07:14:59.214Z,34.39
2019-03-08T07:15:35.298Z,33.99
2019-03-08T07:16:13.377Z,33.73
2019-03-08T07:16:49.434Z,33.56
2019-03-08T07:17:25.675Z,33.63
2019-03-08T07:18:02.032Z,34.06
2019-03-08T07:18:38.196Z,34.40
2019-03-08T07:19:14.340Z,34.03
2019-03-08T07:20:12.206Z,34.05
2019-03-08T07:20:53.331Z,34.04
2019-03-08T07:21:37.078Z,34.55
2019-03-08T07:22:23.431Z,34.61
2019-03-08T07:23:07.830Z,34.40
2019-03-08T07:24:04.684Z,34.36
2019-03-08T07:24:57.385Z,34.38
2019-03-08T07:25:52.552Z,34.26
2019-03-08T07:26:49.870Z,34.42
2019-03-08T07:27:44.850Z,34.62
2019-03-08T07:28:54.779Z,34.10
2019-03-08T07:29:47.903Z,33.67
2019-03-08T07:30:41.112Z,33.71
2019-03-08T07:31:41.176Z,34.33
2019-03-08T07:32:24.338Z,34.80
2019-03-08T07:33:19.277Z,35.02
2019-03-08T07:34:22.939Z,34.85
2019-03-08T07:35:17.930Z,34.89
2019-03-08T07:36:12.890Z,35.26
2019-03-08T07:37:05.955Z,35.35
2019-03-08T07:38:03.971Z,35.34
2019-03-08T07:39:01.962Z,35.34
2019-03-08T07:39:49.247Z,35.33
2019-03-08T07:40:37.560Z,35.49
2019-03-08T07:41:30.670Z,35.71
2019-03-08T07:42:31.463Z,36.34
2019-03-08T07:43:23.183Z,36.02
2019-03-08T07:44:23.978Z,35.30
2019-03-08T07:45:19.400Z,36.13
2019-03-08T07:46:06.605Z,36.56
2019-03-08T07:47:00.715Z,36.68
2019-03-08T07:47:46.769Z,36.09
2019-03-08T07:48:56.613Z,36.01
2019-03-08T07:50:09.659Z,36.04
2019-03-08T07:51:10.549Z,35.89
2019-03-08T07:52:05.614Z,35.58
2019-03-08T07:53:03.853Z,35.83
2019-03-08T07:53:55.372Z,36.17
2019-03-08T07:54:59.210Z,36.19
2019-03-08T07:55:57.063Z,36.55
2019-03-08T07:56:52.047Z,36.90
2019-03-08T07:57:56.531Z,36.94
2019-03-08T07:58:57.487Z,36.91
2019-03-08T07:59:42.061Z,38.01
2019-03-08T08:00:46.065Z,38.15
2019-03-08T08:01:47.110Z,38.15
2019-03-08T08:02:38.042Z,38.40
2019-03-08T08:03:38.580Z,38.06
2019-03-08T08:04:31.562Z,38.00